createdAt,value
2022-11-29T00:04:02.348Z,7.80
2022-11-29T00:06:31.236Z,8.00
2022-11-29T00:09:00.584Z,8.00
2022-11-29T00:11:49.025Z,8.00
2022-11-29T00:14:17.618Z,8.00
2022-11-29T00:19:12.981Z,8.00
2022-11-29T00:21:39.677Z,8.20
2022-11-29T00:26:33.473Z,8.00
2022-11-29T00:31:33.345Z,8.00
2022-11-29T00:34:02.300Z,7.90
2022-11-29T00:38:56.524Z,8.00
2022-11-29T00:41:23.163Z,7.80
2022-11-29T00:43:49.779Z,8.20
2022-11-29T00:46:17.073Z,8.00
2022-11-29T00:48:43.983Z,8.20
2022-11-29T00:51:10.743Z,8.00
2022-11-29T00:53:38.266Z,8.00
2022-11-29T00:56:06.291Z,8.00
2022-11-29T00:58:35.963Z,8.10
2022-11-29T01:01:02.844Z,8.00
2022-11-29T01:06:09.965Z,8.00
2022-11-29T01:08:37.219Z,7.90
2022-11-29T01:11:10.926Z,7.80
2022-11-29T01:16:06.089Z,8.00
2022-11-29T01:18:33.454Z,8.40
2022-11-29T01:21:09.526Z,8.00
2022-11-29T01:23:37.204Z,8.00
2022-11-29T01:26:13.364Z,8.00
2022-11-29T01:28:41.429Z,8.00
2022-11-29T01:31:10.346Z,8.00
2022-11-29T01:33:37.985Z,8.00
2022-11-29T01:36:05.926Z,8.10
2022-11-29T01:38:32.815Z,8.00
2022-11-29T01:41:03.471Z,8.00
2022-11-29T01:43:31.017Z,8.20
2022-11-29T01:45:58.009Z,8.00
2022-11-29T01:48:31.004Z,7.80
2022-11-29T01:51:00.685Z,8.00
2022-11-29T01:53:28.115Z,8.10
2022-11-29T01:56:01.180Z,8.00
2022-11-29T01:58:28.969Z,8.00
2022-11-29T02:00:57.540Z,8.10
2022-11-29T02:03:24.644Z,7.80
2022-11-29T02:05:53.071Z,8.10
2022-11-29T02:08:31.528Z,8.30
2022-11-29T02:13:30.651Z,8.10
2022-11-29T02:16:10.147Z,8.10
2022-11-29T02:18:54.668Z,8.10
2022-11-29T02:21:36.417Z,8.10
2022-11-29T02:24:44.374Z,7.90
2022-11-29T02:27:39.795Z,8.20
2022-11-29T02:30:16.557Z,8.00
2022-11-29T02:35:34.756Z,8.20
2022-11-29T02:38:10.072Z,7.90
2022-11-29T02:40:57.194Z,7.80
2022-11-29T02:43:45.467Z,7.90
2022-11-29T02:46:36.813Z,7.90
2022-11-29T02:49:16.958Z,7.90
2022-11-29T02:52:01.731Z,7.90
2022-11-29T02:54:58.984Z,7.90
2022-11-29T02:57:45.691Z,7.90
2022-11-29T03:00:18.800Z,7.90
2022-11-29T03:03:20.333Z,8.40
2022-11-29T03:05:59.086Z,7.90
2022-11-29T03:09:01.508Z,7.80
2022-11-29T03:11:52.808Z,8.00
2022-11-29T03:14:30.155Z,8.00
2022-11-29T03:17:35.585Z,7.90
2022-11-29T03:20:30.803Z,7.80
2022-11-29T03:23:06.172Z,8.00
2022-11-29T03:25:45.536Z,8.00
2022-11-29T03:28:21.655Z,8.00
2022-11-29T03:31:07.066Z,8.00
2022-11-29T03:33:51.264Z,7.90
2022-11-29T03:36:20.925Z,8.00
2022-11-29T03:38:48.278Z,8.20
2022-11-29T03:41:17.949Z,8.10
2022-11-29T03:44:03.145Z,8.10
2022-11-29T03:49:08.854Z,7.80
2022-11-29T03:52:15.060Z,8.10
2022-11-29T03:55:02.865Z,8.10
2022-11-29T03:58:09.824Z,8.00
2022-11-29T04:00:49.820Z,8.10
2022-11-29T04:03:32.442Z,8.10
2022-11-29T04:06:14.510Z,8.10
2022-11-29T04:09:02.717Z,8.10
2022-11-29T04:12:05.063Z,8.30
2022-11-29T04:14:34.796Z,8.10
2022-11-29T04:17:24.677Z,8.10
2022-11-29T04:19:56.956Z,8.10
2022-11-29T04:23:01.862Z,8.20
2022-11-29T04:26:05.682Z,8.20
2022-11-29T04:29:07.900Z,8.20
2022-11-29T04:31:53.330Z,8.20
2022-11-29T04:34:44.018Z,8.20
2022-11-29T04:37:37.277Z,8.10
2022-11-29T04:40:16.082Z,8.20
2022-11-29T04:43:15.089Z,8.10
2022-11-29T04:46:21.295Z,8.10
2022-11-29T04:49:15.005Z,8.10
2022-11-29T04:52:00.171Z,8.10
2022-11-29T04:54:57.013Z,8.10
2022-11-29T04:57:57.564Z,8.50
2022-11-29T05:00:25.083Z,8.10
2022-11-29T05:03:00.077Z,8.10
2022-11-29T05:05:52.528Z,8.10
2022-11-29T05:08:46.755Z,8.10
2022-11-29T05:11:27.996Z,8.10
2022-11-29T05:14:25.501Z,8.20
2022-11-29T05:17:18.964Z,8.20
2022-11-29T05:20:03.697Z,8.20
2022-11-29T05:22:50.232Z,8.20
2022-11-29T05:25:40.940Z,8.10
2022-11-29T05:28:20.841Z,8.30
2022-11-29T05:31:19.574Z,8.20
2022-11-29T05:34:05.055Z,8.30
2022-11-29T05:36:51.434Z,8.30
2022-11-29T05:39:55.932Z,8.30
2022-11-29T05:42:49.984Z,8.20
2022-11-29T05:45:28.555Z,8.40
2022-11-29T05:48:04.398Z,8.50
2022-11-29T05:50:40.066Z,8.30
2022-11-29T05:53:44.256Z,8.30
2022-11-29T05:56:35.033Z,8.30
2022-11-29T05:59:09.757Z,8.30
2022-11-29T06:02:05.331Z,8.30
2022-11-29T06:04:40.734Z,8.10
2022-11-29T06:07:16.595Z,8.30
2022-11-29T06:10:11.409Z,8.50
2022-11-29T06:15:37.333Z,8.50
2022-11-29T06:18:28.452Z,8.30
2022-11-29T06:21:10.860Z,8.30
2022-11-29T06:26:36.168Z,8.30
2022-11-29T06:29:23.845Z,8.20
2022-11-29T06:31:58.307Z,8.20
2022-11-29T06:34:56.341Z,8.20
2022-11-29T06:37:33.887Z,8.20
2022-11-29T06:40:01.058Z,8.30
2022-11-29T06:44:55.079Z,8.20
2022-11-29T06:47:27.230Z,8.20
2022-11-29T06:50:09.267Z,8.20
2022-11-29T06:52:49.277Z,8.20
2022-11-29T06:55:57.460Z,8.20
2022-11-29T06:58:37.682Z,8.20
2022-11-29T07:01:33.465Z,8.20
2022-11-29T07:04:30.797Z,8.20
2022-11-29T07:06:57.669Z,8.00
2022-11-29T07:09:28.525Z,8.20
2022-11-29T07:19:41.297Z,8.20
2022-11-29T07:22:54.564Z,8.20
2022-11-29T07:25:39.945Z,8.30
2022-11-29T07:28:29.601Z,8.20
2022-11-29T07:31:10.996Z,8.30
2022-11-29T07:33:58.592Z,8.50
2022-11-29T07:39:21.193Z,8.30
2022-11-29T07:42:04.431Z,8.30
2022-11-29T07:44:55.852Z,8.30
2022-11-29T07:52:17.355Z,8.10
2022-11-29T08:04:44.843Z,8.20
2022-11-29T08:14:33.341Z,8.30
2022-11-29T08:19:26.944Z,8.20
2022-11-29T08:31:41.902Z,8.10
2022-11-29T08:34:10.512Z,8.30
2022-11-29T08:36:37.639Z,8.30
2022-11-29T08:39:09.221Z,8.20
2022-11-29T08:41:36.408Z,8.30
2022-11-29T08:44:05.232Z,8.20
2022-11-29T08:59:25.445Z,8.20
2022-11-29T09:09:16.550Z,8.00
2022-11-29T09:14:16.647Z,8.30
2022-11-29T09:19:34.376Z,8.60
2022-11-29T09:31:49.168Z,8.60
2022-11-29T09:34:18.301Z,8.60
2022-11-29T09:36:45.211Z,8.80
2022-11-29T09:42:09.630Z,8.40
2022-11-29T09:45:07.608Z,8.70
2022-11-29T09:47:59.157Z,8.70
2022-11-29T09:50:36.345Z,8.90
2022-11-29T09:53:18.812Z,8.60
2022-11-29T09:56:10.673Z,8.50
2022-11-29T09:59:00.953Z,8.70
2022-11-29T10:01:37.419Z,8.70
2022-11-29T10:04:10.799Z,8.70
2022-11-29T10:06:43.405Z,8.60
2022-11-29T10:09:33.330Z,8.70
2022-11-29T10:12:06.359Z,8.50
2022-11-29T10:14:44.309Z,8.60
2022-11-29T10:17:23.902Z,8.70
2022-11-29T10:19:57.413Z,8.70
2022-11-29T10:22:39.301Z,8.80
2022-11-29T10:25:10.337Z,8.70
2022-11-29T10:27:40.594Z,8.80
2022-11-29T10:53:35.895Z,8.90
2022-11-29T10:56:13.947Z,8.70
2022-11-29T10:58:57.449Z,9.00
2022-11-29T11:01:26.060Z,8.90
2022-11-29T11:03:54.626Z,8.90
2022-11-29T11:06:24.870Z,8.90
2022-11-29T11:08:57.125Z,8.90
2022-11-29T11:11:30.376Z,8.80
2022-11-29T11:14:20.472Z,9.00
2022-11-29T11:16:47.277Z,9.10
2022-11-29T11:19:34.232Z,9.20
2022-11-29T11:22:04.422Z,9.00
2022-11-29T11:24:41.019Z,8.90
2022-11-29T11:27:07.781Z,9.10
2022-11-29T11:29:40.865Z,9.10
2022-11-29T11:32:27.802Z,9.10
2022-11-29T11:34:59.692Z,9.00
2022-11-29T11:37:33.516Z,9.10
2022-11-29T11:40:26.314Z,9.10
2022-11-29T11:45:26.175Z,9.00
2022-11-29T11:47:56.284Z,9.10
2022-11-29T11:50:58.152Z,9.10
2022-11-29T11:53:31.457Z,9.10
2022-11-29T11:58:50.228Z,9.20
2022-11-29T12:01:37.628Z,9.20
2022-11-29T12:04:23.323Z,9.30
2022-11-29T12:06:53.743Z,9.00
2022-11-29T12:09:30.576Z,9.40
2022-11-29T12:12:11.357Z,9.30
2022-11-29T12:15:05.262Z,9.40
2022-11-29T12:18:03.121Z,9.30
2022-11-29T12:20:42.283Z,9.30
2022-11-29T12:23:11.818Z,9.40
2022-11-29T12:26:05.419Z,9.40
2022-11-29T12:28:34.161Z,9.40
2022-11-29T12:31:19.210Z,9.40
2022-11-29T12:34:10.716Z,9.50
2022-11-29T12:36:51.007Z,9.40
2022-11-29T12:39:38.856Z,9.50
2022-11-29T12:42:26.477Z,9.40
2022-11-29T12:45:36.312Z,9.50
2022-11-29T12:48:34.584Z,9.40
2022-11-29T12:51:10.596Z,9.40
2022-11-29T12:53:43.210Z,9.60
2022-11-29T12:56:30.045Z,9.60
2022-11-29T12:59:09.719Z,9.50
2022-11-29T13:02:21.090Z,9.60
2022-11-29T13:05:00.024Z,9.60
2022-11-29T13:07:46.660Z,9.60
2022-11-29T13:10:39.173Z,9.60
2022-11-29T13:13:19.991Z,9.70
2022-11-29T13:15:49.917Z,9.70
2022-11-29T13:18:35.367Z,9.70
2022-11-29T13:21:11.243Z,9.70
2022-11-29T13:24:10.527Z,9.70
2022-11-29T13:26:40.105Z,9.60
2022-11-29T13:29:13.119Z,9.80
2022-11-29T13:34:22.586Z,9.70
2022-11-29T13:39:58.336Z,9.80
2022-11-29T13:42:38.315Z,9.80
2022-11-29T13:47:32.071Z,9.90
2022-11-29T13:50:06.619Z,9.80
2022-11-29T13:52:43.465Z,9.80
2022-11-29T13:55:14.246Z,10.00
2022-11-29T13:58:16.276Z,9.70
2022-11-29T14:00:46.647Z,9.80
2022-11-29T14:03:28.870Z,9.50
2022-11-29T14:06:01.657Z,9.70
2022-11-29T14:11:14.544Z,9.70
2022-11-29T14:16:18.002Z,10.00
2022-11-29T14:18:44.536Z,9.50
2022-11-29T14:21:11.625Z,9.70
2022-11-29T14:23:43.084Z,9.60
2022-11-29T14:26:09.715Z,9.60
2022-11-29T14:28:39.183Z,9.50
2022-11-29T14:31:07.724Z,9.50
2022-11-29T14:36:26.455Z,9.60
2022-11-29T14:39:33.110Z,9.50
2022-11-29T14:42:06.344Z,9.70
2022-11-29T14:44:42.408Z,9.70
2022-11-29T14:47:20.944Z,9.70
2022-11-29T14:52:14.632Z,9.70
2022-11-29T14:55:01.239Z,9.80
2022-11-29T14:57:49.654Z,9.70
2022-11-29T15:00:38.906Z,9.80
2022-11-29T15:03:32.808Z,9.70
2022-11-29T15:06:10.500Z,9.50
2022-11-29T15:08:52.572Z,9.80
2022-11-29T15:11:52.650Z,9.70
2022-11-29T15:14:27.294Z,9.60
2022-11-29T15:17:27.760Z,9.60
2022-11-29T15:20:30.930Z,9.70
2022-11-29T15:23:04.928Z,9.60
2022-11-29T15:25:32.842Z,9.70
2022-11-29T15:28:02.133Z,9.60
2022-11-29T15:30:33.903Z,9.60
2022-11-29T15:33:03.279Z,9.50
2022-11-29T15:35:30.605Z,9.60
2022-11-29T15:37:57.508Z,9.60
2022-11-29T15:40:31.359Z,9.50
2022-11-29T15:43:01.914Z,9.50
2022-11-29T15:45:33.822Z,9.50
2022-11-29T15:48:19.836Z,9.40
2022-11-29T15:51:15.942Z,9.20
2022-11-29T15:56:19.672Z,9.40
2022-11-29T15:58:49.309Z,9.40
2022-11-29T16:01:20.984Z,9.40
2022-11-29T16:03:51.123Z,9.40
2022-11-29T16:06:38.482Z,9.50
2022-11-29T16:09:12.573Z,9.30
2022-11-29T16:11:40.000Z,9.40
2022-11-29T16:16:35.471Z,9.50
2022-11-29T16:19:19.034Z,9.40
2022-11-29T16:21:45.681Z,9.40
2022-11-29T16:24:21.727Z,9.40
2022-11-29T16:26:50.547Z,9.40
2022-11-29T16:29:35.749Z,9.40
2022-11-29T16:32:18.003Z,9.40
2022-11-29T16:37:18.522Z,9.40
2022-11-29T16:39:48.073Z,9.40
2022-11-29T16:42:28.133Z,9.50
2022-11-29T16:45:27.126Z,9.60
2022-11-29T16:47:58.836Z,9.60
2022-11-29T16:50:27.919Z,9.50
2022-11-29T16:52:56.828Z,9.60
2022-11-29T16:55:24.337Z,9.70
2022-11-29T16:57:52.184Z,9.70
2022-11-29T17:00:24.243Z,9.50
2022-11-29T17:02:50.955Z,9.60
2022-11-29T17:10:17.776Z,9.50
2022-11-29T17:12:48.227Z,9.50
2022-11-29T17:15:15.224Z,9.50
2022-11-29T17:17:43.364Z,9.50
2022-11-29T17:20:12.607Z,9.50
2022-11-29T17:22:39.311Z,9.50
2022-11-29T17:32:27.329Z,9.60
2022-11-29T17:52:03.931Z,9.30
2022-11-29T17:57:00.819Z,9.40
2022-11-29T17:59:27.504Z,9.40
2022-11-29T18:01:54.160Z,9.40
2022-11-29T18:04:20.895Z,9.40
2022-11-29T18:06:50.192Z,9.30
2022-11-29T18:09:18.129Z,9.40
2022-11-29T18:11:48.744Z,9.40
2022-11-29T18:14:23.233Z,9.40
2022-11-29T18:16:50.400Z,9.40
2022-11-29T18:19:19.084Z,9.20
2022-11-29T18:21:46.423Z,9.50
2022-11-29T18:26:40.248Z,9.50
2022-11-29T18:29:07.474Z,9.50
2022-11-29T18:31:39.851Z,9.50
2022-11-29T18:34:09.414Z,9.50
2022-11-29T18:36:39.723Z,9.50
2022-11-29T18:39:09.025Z,9.40
2022-11-29T18:41:36.695Z,9.40
2022-11-29T18:44:09.349Z,9.50
2022-11-29T18:46:38.512Z,9.40
2022-11-29T18:49:07.832Z,9.40
2022-11-29T18:54:02.450Z,9.50
2022-11-29T18:56:31.882Z,9.40
2022-11-29T19:01:28.330Z,9.40
2022-11-29T19:03:57.083Z,9.40
2022-11-29T19:06:26.336Z,9.50
2022-11-29T19:08:53.759Z,9.50
2022-11-29T19:11:23.138Z,9.40
2022-11-29T19:13:56.181Z,9.40
2022-11-29T19:16:24.348Z,9.40
2022-11-29T19:18:54.941Z,9.40
2022-11-29T19:21:23.231Z,9.40
2022-11-29T19:23:57.991Z,9.30
2022-11-29T19:26:27.133Z,9.30
2022-11-29T19:28:54.269Z,9.20
2022-11-29T19:31:24.807Z,9.20
2022-11-29T19:33:52.547Z,9.20
2022-11-29T19:36:30.868Z,9.20
2022-11-29T19:39:01.880Z,9.30
2022-11-29T19:41:33.696Z,9.10
2022-11-29T19:44:06.185Z,9.10
2022-11-29T19:46:36.423Z,9.40
2022-11-29T19:49:04.912Z,9.30
2022-11-29T19:54:01.878Z,9.20
2022-11-29T19:56:29.523Z,9.20
2022-11-29T19:58:56.281Z,8.90
2022-11-29T20:01:25.268Z,9.20
2022-11-29T20:03:52.519Z,9.20
2022-11-29T20:06:19.599Z,9.30
2022-11-29T20:11:16.970Z,9.20
2022-11-29T20:13:47.545Z,9.20
2022-11-29T20:16:18.137Z,9.10
2022-11-29T20:18:50.718Z,9.10
2022-11-29T20:21:22.053Z,9.00
2022-11-29T20:23:49.328Z,8.80
2022-11-29T20:26:18.400Z,9.10
2022-11-29T20:28:46.210Z,9.10
2022-11-29T20:31:18.793Z,9.10
2022-11-29T20:33:46.946Z,9.10
2022-11-29T20:36:39.497Z,9.20
2022-11-29T20:39:28.847Z,9.20
2022-11-29T20:42:26.325Z,9.50
2022-11-29T20:44:55.342Z,9.20
2022-11-29T20:47:31.772Z,9.10
2022-11-29T20:49:58.605Z,9.00
2022-11-29T20:52:51.492Z,9.20
2022-11-29T20:55:18.464Z,9.20
2022-11-29T21:00:13.132Z,9.20
2022-11-29T21:02:39.884Z,9.30
2022-11-29T21:12:29.938Z,9.20
2022-11-29T21:14:57.272Z,9.30
2022-11-29T21:22:32.425Z,9.20
2022-11-29T21:25:31.187Z,9.20
2022-11-29T21:27:58.427Z,9.10
2022-11-29T21:35:19.539Z,9.40
2022-11-29T21:40:14.915Z,9.30
2022-11-29T21:45:14.903Z,9.30
2022-11-29T21:47:43.900Z,9.50
2022-11-29T21:50:11.856Z,9.30
2022-11-29T21:55:06.134Z,9.30
2022-11-29T22:04:53.909Z,9.30
2022-11-29T22:07:20.543Z,9.30
2022-11-29T22:12:33.042Z,9.30
2022-11-29T22:15:00.610Z,9.20
2022-11-29T22:24:48.373Z,9.30
2022-11-29T22:27:17.584Z,9.40
2022-11-29T22:34:38.744Z,9.30
2022-11-29T22:37:05.343Z,9.30
2022-11-29T22:41:59.079Z,9.30
2022-11-29T22:44:25.698Z,9.30
2022-11-29T22:46:52.600Z,9.40
2022-11-29T22:49:19.461Z,9.30
2022-11-29T22:54:16.254Z,9.30
2022-11-29T22:59:10.525Z,9.10
2022-11-29T23:01:39.785Z,9.20
2022-11-29T23:04:08.007Z,9.30
2022-11-29T23:06:37.552Z,9.20
2022-11-29T23:09:11.927Z,9.40
2022-11-29T23:19:00.733Z,9.20
2022-11-29T23:21:32.767Z,9.20
2022-11-29T23:24:02.704Z,9.30
2022-11-29T23:26:40.068Z,9.20
2022-11-29T23:29:08.996Z,9.20
2022-11-29T23:31:35.884Z,9.30
2022-11-29T23:34:03.328Z,9.40
2022-11-29T23:36:30.282Z,9.20
2022-11-29T23:41:23.904Z,8.90
2022-11-29T23:46:20.957Z,9.30
2022-11-29T23:53:42.561Z,9.30
2022-11-29T23:56:14.588Z,9.20
2022-11-29T23:58:41.947Z,9.10
